deformed-offering

Nearby METAR Reports

 

KSJC - San Jose, California, USA
Distance from station: NE 9mi, 14km
Updated: Sun, 05-Jul-2020 7:53pm PDT
Few Clouds
Few Clouds
 Wind from N
Wind: N 14 mph , 22 km/h
Temperature: 72°F , 22°C
Dew Point: 48°F , 9°C
Humidity: 44%
Barometer: 29.95 inHg , 1014.2 hPa
Clouds: Few Clouds
Visibility: 10 miles , 16 km
Cloud details: Few Clouds 1000 ft
2020/07/06 02:53 KSJC 060253Z 01012KT 10SM FEW010 22/09 A2995 RMK AO2 SLP142 FU FEW010 T02170089 53002
KRHV - San Jose/Reid, California, USA
Distance from station: ENE 12mi, 19km
Updated: Sun, 05-Jul-2020 7:50pm PDT
Clear
Clear
 Wind from NNW
Wind: NNW 10 mph , 17 km/h
Temperature: 75°F , 24°C
Dew Point: 46°F , 8°C
Humidity: 36%
Barometer: 29.96 inHg , 1014.6 hPa
Clouds: Clear
Visibility: 10 miles , 16 km
2020/07/06 02:50 KRHV 060250Z 33009KT 10SM SKC 24/08 A2996
 
KPAO - Palo Alto, California, USA
Distance from station: NNW 14mi, 23km
Updated: Sun, 05-Jul-2020 3:47pm PDT
NOT Current
Clear
Clear
 Wind from WNW
Wind: WNW 14 mph , 22 km/h
Temperature: 82°F , 28°C
Dew Point: 48°F , 9°C
Humidity: 30%
Barometer: 29.96 inHg , 1014.6 hPa
Clouds: Clear
Visibility: 10 miles , 16 km
2020/07/05 22:47 KPAO 052247Z 30012KT 10SM SKC 28/09 A2996 RMK LAST
KSQL - San Carlos Airpo, California, USA
Distance from station: NW 21mi, 34km
Updated: Sun, 05-Jul-2020 7:58pm PDT
Clear
Clear
 Wind from WSW
Wind: WSW 9 mph , 15 km/h
Temperature: 68°F , 20°C
Dew Point: 46°F , 8°C
Humidity: 46%
Barometer: 29.96 inHg , 1014.6 hPa
Clouds: Clear
Visibility: 10 miles , 16 km
2020/07/06 02:58 KSQL 060258Z 24008KT 10SM SKC 20/08 A2996
 
KWVI - Watsonville, California, USA
Distance from station: SSE 27mi, 44km
Updated: Sun, 05-Jul-2020 7:53pm PDT
Clear
Clear
 Wind from SSE
Wind: SSE 8 mph , 13 km/h
Temperature: 64°F , 18°C
Dew Point: 52°F , 11°C
Humidity: 64%
Barometer: 29.96 inHg , 1014.6 hPa
Clouds: Clear
Visibility: 10 miles , 16 km
2020/07/06 02:53 KWVI 060253Z AUTO 15007KT 10SM CLR 18/11 A2996 RMK AO2 SLP146 T01830111 55001
KHWD - Hayward, California, USA
Distance from station: N 28mi, 44km
Updated: Sun, 05-Jul-2020 7:54pm PDT
Clear
Clear
 Wind from W
Wind: W 6 mph , 9 km/h
Temperature: 64°F , 18°C
Dew Point: 52°F , 11°C
Humidity: 64%
Barometer: 29.95 inHg , 1014.2 hPa
Clouds: Clear
Visibility: 10 miles , 16 km
2020/07/06 02:54 KHWD 060254Z 28005KT 10SM CLR 18/11 A2995 RMK AO2 SLP151 T01830106 55003
 
KSFO - San Francisco, California, USA
Distance from station: NW 30mi, 49km
Updated: Sun, 05-Jul-2020 7:56pm PDT
Clear
Clear
 Wind from WNW
Wind: WNW 30 mph , 48 km/h, Gust: 38 mph , 61 km/h
Temperature: 63°F , 17°C
Dew Point: 48°F , 9°C
Humidity: 59%
Barometer: 29.93 inHg , 1013.5 hPa
Clouds: Clear
Visibility: 10 miles , 16 km
2020/07/06 02:56 KSFO 060256Z 29026G33KT 10SM CLR 17/09 A2993 RMK AO2 PK WND 29036/0204 SLP134 T01720089 56007 $
KHAF - Half Moon Bay, California, USA
Distance from station: WNW 31mi, 50km
Updated: Sun, 05-Jul-2020 8:00pm PDT
Haze, Clear
Haze, Clear
 Wind from NNW
Wind: NNW 12 mph , 19 km/h, Gust: 17 mph , 28 km/h
Temperature: 59°F , 15°C
Dew Point: 50°F , 10°C
Humidity: 72%
Barometer: 30.00 inHg , 1015.9 hPa
Summary: Haze
Clouds: Clear
Visibility: 5 miles , 8 km
2020/07/06 03:00 KHAF 060300Z AUTO 34010G15KT 5SM HZ CLR 15/10 A3000 RMK AO2
 
KLVK - Livermore, California, USA
Distance from station: NNE 31mi, 51km
Updated: Sun, 05-Jul-2020 7:53pm PDT
Clear
Clear
 Wind from SW
Wind: SW 8 mph , 13 km/h
Temperature: 75°F , 24°C
Dew Point: 45°F , 7°C
Humidity: 34%
Barometer: 29.92 inHg , 1013.2 hPa
Clouds: Clear
Visibility: 10 miles , 16 km
2020/07/06 02:53 KLVK 060253Z 22007KT 180V240 10SM CLR 24/07 A2992 RMK AO2 SLP126 T02440067 55001
KOAK - Oakland, California, USA
Distance from station: NNW 33mi, 53km
Updated: Sun, 05-Jul-2020 7:53pm PDT
Clear
Clear
 Wind from W
Wind: W 17 mph , 28 km/h
Temperature: 66°F , 19°C
Dew Point: 52°F , 11°C
Humidity: 60%
Barometer: 29.95 inHg , 1014.2 hPa
Clouds: Clear
Visibility: 10 miles , 16 km
2020/07/06 02:53 KOAK 060253Z 27015KT 10SM CLR 19/11 A2995 RMK AO2 SLP142 T01890111 56004
 
KCVH - Hollister Muni, California, USA
Distance from station: SE 42mi, 68km
Updated: Sun, 05-Jul-2020 7:55pm PDT
Clear
Clear
 Wind from SW
Wind: SW 9 mph , 15 km/h
Temperature: 73°F , 23°C
Dew Point: 48°F , 9°C
Humidity: 41%
Barometer: 29.94 inHg , 1013.9 hPa
Clouds: Clear
Visibility: 10 miles , 16 km
2020/07/06 02:55 KCVH 060255Z AUTO 22008KT 10SM CLR 23/09 A2994 RMK A01
KSNS - Salinas, California, USA
Distance from station: SSE 48mi, 77km
Updated: Sun, 05-Jul-2020 7:53pm PDT
Clear
Clear
 Wind from WNW
Wind: WNW 15 mph , 24 km/h
Temperature: 66°F , 19°C
Dew Point: 50°F , 10°C
Humidity: 56%
Barometer: 29.97 inHg , 1014.9 hPa
Clouds: Clear
Visibility: 9 miles , 14 km
2020/07/06 02:53 KSNS 060253Z AUTO 30013KT 9SM CLR 19/10 A2997 RMK AO2 SLP158 T01890100 55004 $
 
KMRY - Monterey, California, USA
Distance from station: SSE 49mi, 78km
Updated: Sun, 05-Jul-2020 7:54pm PDT
Clear
Clear
 Wind from W
Wind: W 8 mph , 13 km/h
Temperature: 64°F , 18°C
Dew Point: 48°F , 9°C
Humidity: 56%
Barometer: 30.00 inHg , 1015.9 hPa
Clouds: Clear
Visibility: 10 miles , 16 km
2020/07/06 02:54 KMRY 060254Z AUTO 27007KT 10SM CLR 18/09 A3000 RMK AO2 SLP171 T01780094 55001
KCCR - Concord, California, USA
Distance from station: N 50mi, 81km
Updated: Sun, 05-Jul-2020 7:53pm PDT
Clear
Clear
 Wind from SW
Wind: SW 12 mph , 19 km/h
Temperature: 81°F , 27°C
Dew Point: 41°F , 5°C
Humidity: 24%
Barometer: 29.89 inHg , 1012.2 hPa
Clouds: Clear
Visibility: 10 miles , 16 km
2020/07/06 02:53 KCCR 060253Z AUTO 23010KT 10SM CLR 27/05 A2989 RMK AO2 SLP108 T02720050 55003
deformed-offering